createdAt,value
2022-12-04T00:01:20.553Z,15.80
2022-12-04T00:03:48.601Z,16.53
2022-12-04T00:06:17.814Z,15.27
2022-12-04T00:08:46.292Z,15.07
2022-12-04T00:11:17.066Z,16.50
2022-12-04T00:13:45.322Z,15.30
2022-12-04T00:16:14.788Z,16.27
2022-12-04T00:18:42.780Z,15.30
2022-12-04T00:21:13.130Z,15.43
2022-12-04T00:23:41.433Z,15.73
2022-12-04T00:26:10.829Z,15.50
2022-12-04T00:28:39.928Z,15.07
2022-12-04T00:31:08.785Z,14.63
2022-12-04T00:33:36.643Z,14.87
2022-12-04T00:36:07.057Z,15.60
2022-12-04T00:38:34.808Z,14.70
2022-12-04T00:41:02.546Z,15.07
2022-12-04T00:43:31.185Z,13.33
2022-12-04T00:46:00.224Z,15.10
2022-12-04T00:48:27.968Z,14.07
2022-12-04T00:50:55.601Z,14.37
2022-12-04T00:53:23.563Z,14.77
2022-12-04T00:55:51.300Z,14.80
2022-12-04T00:58:18.954Z,14.77
2022-12-04T01:00:46.677Z,14.67
2022-12-04T01:03:15.763Z,13.30
2022-12-04T01:05:45.441Z,14.17
2022-12-04T01:08:13.950Z,12.43
2022-12-04T01:10:42.945Z,14.40
2022-12-04T01:13:10.719Z,14.40
2022-12-04T01:15:40.052Z,13.97
2022-12-04T01:18:07.804Z,14.27
2022-12-04T01:20:36.971Z,15.40
2022-12-04T01:23:04.600Z,13.67
2022-12-04T01:25:32.273Z,13.97
2022-12-04T01:27:59.904Z,13.77
2022-12-04T01:30:27.519Z,13.70
2022-12-04T01:32:55.186Z,12.50
2022-12-04T01:35:22.912Z,14.57
2022-12-04T01:37:51.871Z,15.57
2022-12-04T01:40:21.044Z,14.70
2022-12-04T01:42:48.707Z,12.83
2022-12-04T01:45:44.126Z,12.50
2022-12-04T01:48:17.355Z,12.93
2022-12-04T01:50:45.507Z,12.83
2022-12-04T01:53:15.185Z,13.00
2022-12-04T01:55:43.458Z,13.70
2022-12-04T01:58:11.335Z,13.70
2022-12-04T02:00:39.129Z,13.23
2022-12-04T02:03:06.886Z,13.07
2022-12-04T02:05:34.615Z,12.60
2022-12-04T02:08:05.444Z,12.73
2022-12-04T02:10:43.069Z,13.30
2022-12-04T02:13:15.992Z,12.77
2022-12-04T02:15:50.117Z,11.73
2022-12-04T02:18:22.750Z,11.17
2022-12-04T02:20:54.198Z,11.70
2022-12-04T02:23:33.921Z,11.13
2022-12-04T02:26:10.868Z,11.27
2022-12-04T02:28:43.564Z,11.47
2022-12-04T02:31:14.635Z,12.20
2022-12-04T02:33:45.897Z,12.97
2022-12-04T02:36:16.426Z,11.33
2022-12-04T02:38:45.773Z,11.73
2022-12-04T02:41:16.937Z,12.30
2022-12-04T02:43:47.891Z,13.60
2022-12-04T02:46:19.952Z,12.60
2022-12-04T02:48:50.711Z,12.90
2022-12-04T02:51:20.804Z,12.23
2022-12-04T02:53:51.380Z,12.87
2022-12-04T02:56:22.428Z,11.67
2022-12-04T02:58:54.455Z,12.03
2022-12-04T03:01:25.256Z,12.13
2022-12-04T03:03:56.656Z,10.37
2022-12-04T03:06:25.173Z,12.97
2022-12-04T03:08:54.772Z,12.90
2022-12-04T03:11:22.779Z,13.93
2022-12-04T03:13:54.455Z,13.47
2022-12-04T03:16:24.488Z,14.13
2022-12-04T03:18:55.257Z,13.87
2022-12-04T03:21:25.476Z,13.87
2022-12-04T03:23:56.385Z,14.77
2022-12-04T03:26:27.089Z,14.33
2022-12-04T03:28:59.851Z,13.83
2022-12-04T03:31:33.798Z,14.47
2022-12-04T03:34:02.814Z,13.50
2022-12-04T03:36:34.567Z,15.20
2022-12-04T03:39:04.800Z,14.17
2022-12-04T03:41:34.453Z,14.13
2022-12-04T03:44:07.928Z,15.23
2022-12-04T03:46:37.685Z,13.70
2022-12-04T03:49:10.491Z,13.10
2022-12-04T03:51:40.667Z,12.83
2022-12-04T03:54:11.987Z,13.07
2022-12-04T03:56:41.592Z,14.20
2022-12-04T03:59:12.539Z,13.87
2022-12-04T04:01:44.506Z,13.60
2022-12-04T04:04:15.584Z,13.53
2022-12-04T04:06:47.201Z,13.37
2022-12-04T04:09:17.361Z,13.37
2022-12-04T04:11:48.616Z,13.73
2022-12-04T04:14:37.816Z,14.17
2022-12-04T04:17:27.177Z,12.93
2022-12-04T04:20:20.424Z,13.07
2022-12-04T04:23:07.783Z,13.67
2022-12-04T04:25:37.933Z,13.60
2022-12-04T04:28:05.629Z,14.57
2022-12-04T04:30:35.841Z,14.10
2022-12-04T04:33:08.136Z,13.77
2022-12-04T04:35:44.307Z,13.77
2022-12-04T04:38:17.117Z,14.17
2022-12-04T04:40:50.776Z,13.17
2022-12-04T04:43:21.387Z,13.00
2022-12-04T04:45:54.986Z,13.57
2022-12-04T04:48:25.191Z,13.20
2022-12-04T04:50:53.121Z,13.50
2022-12-04T04:53:22.847Z,13.30
2022-12-04T04:55:50.959Z,14.50
2022-12-04T04:58:21.707Z,12.50
2022-12-04T05:00:58.174Z,13.57
2022-12-04T05:03:25.927Z,13.33
2022-12-04T05:05:53.618Z,12.30
2022-12-04T05:08:21.801Z,13.67
2022-12-04T05:10:49.579Z,13.10
2022-12-04T05:13:18.377Z,12.47
2022-12-04T05:15:46.250Z,12.30
2022-12-04T05:18:15.346Z,12.90
2022-12-04T05:20:41.985Z,12.37
2022-12-04T05:23:09.916Z,14.07
2022-12-04T05:25:37.490Z,13.30
2022-12-04T05:28:05.169Z,12.27
2022-12-04T05:30:32.769Z,12.90
2022-12-04T05:33:00.361Z,13.00
2022-12-04T05:35:29.417Z,14.00
2022-12-04T05:37:57.024Z,12.73
2022-12-04T05:40:24.787Z,13.60
2022-12-04T05:42:52.405Z,12.73
2022-12-04T05:45:19.944Z,12.57
2022-12-04T05:47:47.628Z,13.23
2022-12-04T05:50:15.374Z,13.90
2022-12-04T05:52:44.472Z,13.60
2022-12-04T05:55:12.093Z,14.57
2022-12-04T05:57:39.747Z,12.63
2022-12-04T06:00:08.710Z,13.03
2022-12-04T06:02:36.586Z,13.63
2022-12-04T06:05:04.627Z,13.47
2022-12-04T06:07:32.282Z,12.60
2022-12-04T06:10:01.217Z,13.83
2022-12-04T06:12:28.798Z,12.87
2022-12-04T06:14:56.616Z,13.43
2022-12-04T06:17:24.246Z,13.83
2022-12-04T06:19:53.428Z,12.40
2022-12-04T06:22:21.281Z,12.57
2022-12-04T06:24:49.089Z,13.13
2022-12-04T06:27:33.513Z,13.23
2022-12-04T06:30:01.167Z,13.07
2022-12-04T06:32:28.813Z,13.80
2022-12-04T06:34:56.515Z,12.97
2022-12-04T06:37:25.792Z,13.87
2022-12-04T06:39:53.680Z,13.73
2022-12-04T06:42:22.825Z,12.80
2022-12-04T06:44:50.447Z,13.27
2022-12-04T06:47:18.344Z,12.57
2022-12-04T06:49:46.487Z,13.87
2022-12-04T06:52:14.088Z,12.67
2022-12-04T06:54:42.032Z,13.07
2022-12-04T06:57:09.814Z,13.47
2022-12-04T06:59:39.104Z,13.60
2022-12-04T07:02:06.799Z,14.20
2022-12-04T07:04:34.490Z,12.97
2022-12-04T07:07:02.247Z,13.30
2022-12-04T07:09:29.906Z,13.53
2022-12-04T07:11:57.528Z,13.63
2022-12-04T07:14:25.166Z,13.27
2022-12-04T07:16:54.189Z,13.40
2022-12-04T07:19:21.918Z,12.77
2022-12-04T07:21:49.582Z,13.70
2022-12-04T07:24:18.284Z,13.73
2022-12-04T07:26:46.357Z,12.90
2022-12-04T07:29:14.110Z,14.10
2022-12-04T07:31:41.800Z,14.17
2022-12-04T07:34:10.862Z,13.27
2022-12-04T07:36:40.086Z,13.40
2022-12-04T07:39:07.894Z,12.17
2022-12-04T07:41:36.183Z,13.13
2022-12-04T07:44:03.735Z,11.63
2022-12-04T07:46:31.560Z,12.47
2022-12-04T07:49:00.015Z,13.53
2022-12-04T07:51:30.074Z,11.97
2022-12-04T07:54:03.116Z,12.60
2022-12-04T07:56:31.847Z,12.77
2022-12-04T07:59:00.282Z,13.50
2022-12-04T08:01:28.197Z,12.33
2022-12-04T08:03:57.778Z,13.50
2022-12-04T08:06:27.298Z,12.13
2022-12-04T08:08:57.227Z,12.90
2022-12-04T08:11:26.363Z,12.63
2022-12-04T08:13:55.545Z,13.17
2022-12-04T08:16:23.442Z,12.83
2022-12-04T08:18:51.187Z,12.53
2022-12-04T08:21:21.744Z,12.50
2022-12-04T08:23:51.047Z,12.53
2022-12-04T08:26:21.723Z,12.73
2022-12-04T08:28:49.593Z,12.97
2022-12-04T08:31:19.370Z,12.87
2022-12-04T08:33:48.368Z,12.20
2022-12-04T08:36:19.147Z,12.07
2022-12-04T08:38:47.596Z,11.77
2022-12-04T08:41:17.178Z,13.43
2022-12-04T08:43:46.306Z,12.43
2022-12-04T08:46:15.645Z,12.63
2022-12-04T08:48:43.360Z,11.27
2022-12-04T08:51:15.820Z,11.97
2022-12-04T08:53:43.515Z,12.13
2022-12-04T08:56:11.594Z,11.90
2022-12-04T08:58:39.333Z,12.27
2022-12-04T09:01:09.785Z,12.17
2022-12-04T09:03:37.629Z,12.57
2022-12-04T09:06:06.518Z,13.40
2022-12-04T09:08:34.697Z,12.20
2022-12-04T09:11:06.251Z,11.97
2022-12-04T09:13:34.331Z,12.33
2022-12-04T09:16:05.014Z,12.57
2022-12-04T09:18:34.361Z,13.40
2022-12-04T09:21:03.538Z,12.57
2022-12-04T09:23:31.299Z,12.57
2022-12-04T09:25:59.008Z,12.47
2022-12-04T09:28:26.724Z,12.33
2022-12-04T09:30:58.978Z,11.90
2022-12-04T09:33:26.775Z,12.10
2022-12-04T09:35:55.860Z,12.37
2022-12-04T09:38:23.596Z,11.33
2022-12-04T09:40:53.827Z,11.23
2022-12-04T09:43:28.775Z,14.13
2022-12-04T09:46:00.179Z,12.33
2022-12-04T09:48:32.691Z,13.30
2022-12-04T09:51:02.557Z,12.90
2022-12-04T09:53:36.030Z,12.80
2022-12-04T09:56:06.068Z,13.10
2022-12-04T09:58:37.446Z,12.03
2022-12-04T10:01:06.214Z,11.93
2022-12-04T10:03:34.388Z,12.33
2022-12-04T10:06:08.216Z,12.43
2022-12-04T10:08:37.568Z,12.50
2022-12-04T10:11:12.211Z,12.60
2022-12-04T10:14:05.642Z,12.60
2022-12-04T10:16:39.510Z,12.90
2022-12-04T10:19:11.956Z,12.97
2022-12-04T10:21:50.927Z,11.83
2022-12-04T10:24:28.093Z,12.77
2022-12-04T10:26:57.559Z,13.10
2022-12-04T10:29:27.934Z,11.80
2022-12-04T10:31:57.263Z,12.10
2022-12-04T10:34:26.661Z,12.10
2022-12-04T10:36:56.648Z,12.87
2022-12-04T10:39:26.538Z,12.17
2022-12-04T10:41:58.725Z,12.43
2022-12-04T10:44:26.548Z,10.73
2022-12-04T10:46:56.711Z,12.20
2022-12-04T10:49:27.454Z,11.93
2022-12-04T10:51:56.907Z,12.33
2022-12-04T10:54:32.153Z,12.43
2022-12-04T10:57:01.352Z,12.00
2022-12-04T10:59:30.265Z,14.17
2022-12-04T11:02:06.537Z,11.90
2022-12-04T11:04:35.406Z,12.97
2022-12-04T11:07:06.844Z,13.10
2022-12-04T11:09:34.892Z,13.50
2022-12-04T11:12:08.160Z,11.93
2022-12-04T11:14:35.885Z,13.00
2022-12-04T11:17:06.177Z,13.47
2022-12-04T11:19:36.232Z,13.03
2022-12-04T11:22:13.298Z,13.20
2022-12-04T11:24:42.690Z,12.60
2022-12-04T11:27:18.291Z,12.03
2022-12-04T11:29:47.489Z,12.63
2022-12-04T11:32:21.608Z,13.20
2022-12-04T11:34:51.782Z,12.77
2022-12-04T11:37:23.236Z,13.40
2022-12-04T11:39:51.450Z,14.47
2022-12-04T11:42:23.756Z,13.60
2022-12-04T11:44:53.259Z,12.67
2022-12-04T11:47:23.384Z,13.53
2022-12-04T11:50:01.490Z,13.37
2022-12-04T11:52:39.918Z,12.53
2022-12-04T11:55:12.666Z,14.27
2022-12-04T11:57:44.707Z,12.33
2022-12-04T12:00:15.231Z,12.33
2022-12-04T12:02:54.621Z,11.60
2022-12-04T12:05:41.643Z,11.27
2022-12-04T12:08:15.315Z,11.17
2022-12-04T12:10:48.283Z,11.97
2022-12-04T12:13:22.218Z,12.20
2022-12-04T12:15:53.945Z,13.00
2022-12-04T12:18:35.875Z,11.90
2022-12-04T12:21:07.520Z,12.23
2022-12-04T12:23:47.390Z,11.93
2022-12-04T12:26:16.825Z,12.80
2022-12-04T12:29:08.827Z,13.27
2022-12-04T12:31:52.841Z,13.73
2022-12-04T12:34:26.107Z,13.00
2022-12-04T12:37:00.548Z,12.93
2022-12-04T12:39:36.008Z,13.53
2022-12-04T12:42:03.591Z,13.20
2022-12-04T12:44:36.315Z,13.40
2022-12-04T12:47:08.963Z,13.00
2022-12-04T12:49:42.439Z,12.37
2022-12-04T12:52:17.173Z,12.63
2022-12-04T12:54:49.431Z,13.67
2022-12-04T12:57:19.947Z,13.33
2022-12-04T12:59:50.686Z,13.83
2022-12-04T13:02:29.172Z,14.87
2022-12-04T13:04:59.121Z,13.70
2022-12-04T13:07:30.996Z,14.10
2022-12-04T13:10:03.725Z,12.73
2022-12-04T13:12:38.902Z,14.77
2022-12-04T13:15:07.256Z,14.73
2022-12-04T13:17:37.234Z,15.63
2022-12-04T13:20:10.408Z,15.13
2022-12-04T13:22:44.355Z,14.07
2022-12-04T13:25:20.482Z,14.67
2022-12-04T13:27:58.664Z,15.43
2022-12-04T13:30:31.579Z,14.63
2022-12-04T13:33:29.146Z,14.30
2022-12-04T13:36:13.838Z,14.97
2022-12-04T13:38:56.483Z,15.10
2022-12-04T13:41:28.550Z,15.63
2022-12-04T13:43:57.531Z,14.97
2022-12-04T13:46:30.214Z,14.87
2022-12-04T13:49:09.244Z,15.23
2022-12-04T13:51:38.961Z,14.07
2022-12-04T13:54:25.511Z,15.10
2022-12-04T13:56:56.817Z,15.03
2022-12-04T13:59:35.475Z,14.97
2022-12-04T14:02:08.233Z,15.27
2022-12-04T14:04:41.673Z,15.43
2022-12-04T14:07:24.048Z,14.60
2022-12-04T14:09:53.515Z,15.33
2022-12-04T14:12:28.185Z,13.97
2022-12-04T14:14:58.111Z,14.80
2022-12-04T14:17:27.838Z,14.60
2022-12-04T14:20:00.757Z,16.77
2022-12-04T14:22:41.530Z,15.77
2022-12-04T14:25:23.893Z,14.97
2022-12-04T14:27:54.287Z,14.07
2022-12-04T14:30:25.322Z,14.23
2022-12-04T14:32:55.515Z,14.30
2022-12-04T14:35:25.033Z,14.97
2022-12-04T14:37:57.061Z,14.43
2022-12-04T14:40:27.864Z,14.37
2022-12-04T14:42:57.130Z,14.07
2022-12-04T14:45:33.424Z,12.93
2022-12-04T14:48:19.616Z,14.00
2022-12-04T14:50:52.952Z,13.00
2022-12-04T14:53:29.848Z,13.03
2022-12-04T14:56:07.129Z,12.90
2022-12-04T14:58:39.014Z,13.60
2022-12-04T15:01:08.571Z,13.30
2022-12-04T15:03:38.165Z,14.30
2022-12-04T15:06:07.674Z,13.93
2022-12-04T15:08:36.274Z,13.13
2022-12-04T15:11:24.758Z,15.13
2022-12-04T15:13:53.840Z,13.60
2022-12-04T15:16:23.313Z,12.30
2022-12-04T15:18:55.110Z,12.10
2022-12-04T15:21:23.060Z,12.47
2022-12-04T15:23:50.947Z,12.60
2022-12-04T15:26:20.879Z,12.10
2022-12-04T15:28:53.206Z,13.53
2022-12-04T15:31:23.605Z,11.97
2022-12-04T15:33:53.393Z,12.03
2022-12-04T15:36:37.667Z,12.73
2022-12-04T15:39:05.962Z,12.80
2022-12-04T15:41:35.205Z,12.47
2022-12-04T15:44:04.744Z,13.77
2022-12-04T15:46:34.406Z,13.23
2022-12-04T15:49:14.370Z,12.83
2022-12-04T15:51:42.177Z,12.20
2022-12-04T15:54:15.105Z,13.60
2022-12-04T15:56:42.959Z,13.03
2022-12-04T15:59:18.166Z,12.03
2022-12-04T16:01:46.044Z,12.63
2022-12-04T16:04:22.307Z,11.60
2022-12-04T16:06:53.591Z,12.00
2022-12-04T16:09:23.519Z,13.40
2022-12-04T16:11:59.450Z,12.73
2022-12-04T16:14:28.567Z,13.73
2022-12-04T16:17:05.527Z,12.30
2022-12-04T16:19:35.834Z,12.73
2022-12-04T16:22:06.408Z,12.23
2022-12-04T16:24:34.023Z,13.37
2022-12-04T16:27:02.162Z,13.13
2022-12-04T16:29:31.497Z,12.30
2022-12-04T16:32:03.016Z,13.43
2022-12-04T16:34:31.328Z,15.20
2022-12-04T16:36:59.845Z,13.37
2022-12-04T16:39:27.480Z,14.73
2022-12-04T16:41:55.118Z,14.33
2022-12-04T16:44:22.914Z,13.23
2022-12-04T16:46:52.204Z,13.87
2022-12-04T16:49:19.928Z,14.50
2022-12-04T16:51:50.488Z,13.77
2022-12-04T16:54:20.360Z,15.07
2022-12-04T16:56:48.092Z,14.57
2022-12-04T16:59:15.675Z,15.23
2022-12-04T17:01:45.367Z,14.67
2022-12-04T17:04:15.939Z,15.07
2022-12-04T17:06:43.888Z,15.37
2022-12-04T17:09:11.623Z,14.57
2022-12-04T17:11:39.673Z,14.70
2022-12-04T17:14:08.076Z,14.13
2022-12-04T17:16:36.093Z,13.77
2022-12-04T17:19:04.112Z,15.07
2022-12-04T17:21:34.236Z,13.57
2022-12-04T17:24:02.174Z,12.27
2022-12-04T17:26:29.969Z,12.57
2022-12-04T17:28:57.526Z,11.90
2022-12-04T17:31:26.469Z,12.07
2022-12-04T17:33:54.232Z,11.50
2022-12-04T17:36:25.183Z,11.70
2022-12-04T17:38:55.659Z,12.93
2022-12-04T17:41:23.515Z,11.90
2022-12-04T17:43:51.557Z,11.90
2022-12-04T17:46:21.803Z,13.10
2022-12-04T17:48:49.836Z,12.17
2022-12-04T17:51:19.422Z,11.87
2022-12-04T17:53:47.114Z,12.33
2022-12-04T17:56:18.262Z,12.83
2022-12-04T17:58:46.640Z,11.83
2022-12-04T18:01:16.132Z,11.87
2022-12-04T18:03:44.478Z,12.00
2022-12-04T18:06:13.374Z,12.17
2022-12-04T18:08:44.066Z,11.87
2022-12-04T18:11:17.520Z,11.33
2022-12-04T18:13:45.344Z,10.97
2022-12-04T18:16:13.176Z,11.90
2022-12-04T18:18:41.037Z,11.70
2022-12-04T18:21:10.375Z,11.93
2022-12-04T18:23:40.197Z,12.40
2022-12-04T18:26:08.568Z,13.67
2022-12-04T18:28:38.146Z,11.97
2022-12-04T18:31:07.575Z,12.60
2022-12-04T18:33:37.324Z,11.77
2022-12-04T18:36:05.688Z,11.77
2022-12-04T18:38:33.951Z,12.60
2022-12-04T18:41:03.391Z,11.37
2022-12-04T18:43:34.690Z,12.20
2022-12-04T18:46:08.246Z,12.30
2022-12-04T18:48:36.947Z,13.10
2022-12-04T18:51:17.232Z,11.37
2022-12-04T18:53:48.140Z,12.47
2022-12-04T18:56:16.313Z,13.80
2022-12-04T18:58:45.386Z,12.77
2022-12-04T19:01:17.311Z,12.60
2022-12-04T19:03:45.678Z,13.17
2022-12-04T19:06:13.763Z,13.27
2022-12-04T19:08:43.462Z,13.73
2022-12-04T19:11:13.674Z,14.80
2022-12-04T19:13:41.558Z,15.27
2022-12-04T19:16:12.282Z,15.23
2022-12-04T19:18:42.125Z,15.47
2022-12-04T19:21:10.007Z,14.47
2022-12-04T19:23:37.850Z,14.73
2022-12-04T19:26:05.742Z,13.57
2022-12-04T19:28:33.555Z,13.93
2022-12-04T19:31:01.470Z,13.77
2022-12-04T19:33:29.485Z,13.53
2022-12-04T19:35:59.579Z,13.07
2022-12-04T19:38:29.108Z,14.60
2022-12-04T19:41:04.815Z,14.13
2022-12-04T19:43:33.002Z,13.63
2022-12-04T19:46:00.709Z,13.70
2022-12-04T19:48:28.686Z,13.33
2022-12-04T19:50:56.567Z,12.97
2022-12-04T19:53:25.540Z,14.27
2022-12-04T19:55:53.256Z,13.00
2022-12-04T19:58:21.041Z,14.13
2022-12-04T20:00:49.777Z,13.63
2022-12-04T20:03:19.232Z,14.10
2022-12-04T20:05:47.637Z,14.70
2022-12-04T20:08:15.373Z,14.10
2022-12-04T20:10:44.558Z,14.53
2022-12-04T20:13:13.238Z,14.60
2022-12-04T20:15:41.260Z,14.80
2022-12-04T20:18:08.915Z,13.50
2022-12-04T20:20:37.154Z,14.37
2022-12-04T20:23:04.905Z,15.27
2022-12-04T20:25:32.685Z,14.70
2022-12-04T20:28:01.891Z,15.23
2022-12-04T20:30:30.321Z,14.50
2022-12-04T20:32:58.522Z,15.60
2022-12-04T20:35:26.260Z,15.17
2022-12-04T20:37:53.990Z,15.70
2022-12-04T20:40:21.729Z,14.47
2022-12-04T20:42:49.647Z,14.70
2022-12-04T20:45:19.005Z,14.77
2022-12-04T20:47:46.979Z,15.20
2022-12-04T20:50:14.627Z,15.47
2022-12-04T20:52:42.334Z,15.73
2022-12-04T20:55:10.963Z,15.43
2022-12-04T20:57:38.790Z,15.20
2022-12-04T21:00:07.838Z,14.03
2022-12-04T21:02:37.257Z,14.93
2022-12-04T21:05:05.523Z,15.83
2022-12-04T21:07:33.247Z,14.97
2022-12-04T21:10:01.377Z,17.60
2022-12-04T21:12:46.442Z,18.33
2022-12-04T21:15:31.901Z,15.27
2022-12-04T21:18:02.845Z,14.40
2022-12-04T21:20:30.528Z,14.57
2022-12-04T21:22:59.127Z,14.50
2022-12-04T21:25:27.808Z,14.83
2022-12-04T21:27:55.567Z,14.73
2022-12-04T21:30:23.587Z,14.80
2022-12-04T21:32:51.271Z,15.23
2022-12-04T21:35:20.999Z,14.40
2022-12-04T21:37:49.793Z,16.37
2022-12-04T21:40:17.558Z,15.70
2022-12-04T21:42:45.195Z,16.40
2022-12-04T21:45:12.882Z,14.53
2022-12-04T21:47:40.562Z,16.67
2022-12-04T21:50:09.782Z,16.20
2022-12-04T21:52:39.193Z,17.83
2022-12-04T21:55:07.333Z,17.00
2022-12-04T21:57:35.084Z,14.67
2022-12-04T22:00:04.080Z,13.97
2022-12-04T22:02:32.482Z,14.63
2022-12-04T22:05:00.221Z,13.77
2022-12-04T22:07:28.837Z,13.60
2022-12-04T22:09:58.650Z,14.47
2022-12-04T22:12:48.620Z,13.30
2022-12-04T22:15:14.779Z,17.67
2022-12-04T22:17:42.819Z,18.97
2022-12-04T22:20:11.033Z,19.27
2022-12-04T22:22:38.800Z,16.10
2022-12-04T22:25:08.527Z,15.10
2022-12-04T22:27:36.143Z,13.40
2022-12-04T22:30:04.895Z,12.73
2022-12-04T22:32:32.935Z,13.83
2022-12-04T22:35:00.580Z,13.83
2022-12-04T22:37:28.278Z,13.53
2022-12-04T22:39:56.403Z,13.40
2022-12-04T22:42:26.270Z,12.47
2022-12-04T22:44:53.967Z,11.73
2022-12-04T22:47:21.799Z,12.67
2022-12-04T22:49:49.591Z,12.17
2022-12-04T22:52:17.644Z,11.87
2022-12-04T22:54:45.205Z,13.70
2022-12-04T22:57:13.490Z,11.80
2022-12-04T22:59:42.616Z,11.83
2022-12-04T23:02:10.275Z,11.63
2022-12-04T23:04:38.025Z,12.47
2022-12-04T23:07:06.189Z,11.20
2022-12-04T23:09:34.040Z,11.50
2022-12-04T23:12:01.713Z,10.57
2022-12-04T23:14:29.928Z,11.60
2022-12-04T23:16:59.221Z,11.47
2022-12-04T23:19:27.058Z,11.93
2022-12-04T23:21:57.196Z,13.10
2022-12-04T23:24:25.434Z,13.10
2022-12-04T23:26:53.160Z,12.87
2022-12-04T23:29:51.430Z,12.63
2022-12-04T23:32:09.713Z,11.67
2022-12-04T23:34:37.418Z,14.60
2022-12-04T23:37:05.140Z,13.80
2022-12-04T23:39:32.946Z,13.53
2022-12-04T23:42:01.012Z,13.93
2022-12-04T23:44:29.048Z,12.77
2022-12-04T23:46:56.897Z,14.40
2022-12-04T23:49:26.353Z,13.53
2022-12-04T23:51:54.151Z,14.03
2022-12-04T23:54:21.849Z,13.27
2022-12-04T23:56:49.604Z,12.60
2022-12-04T23:59:17.348Z,12.57
